Strona główna
METAR-TAF:

METAR-TAF

Lotnisko :

Cranfield, Anglia

Szerokość geograficzna: 52-04N, Długość geograficzna: 000-37W, wysokość: 111 m

Aktualna obserwacja pogody

Raport powstał 1 godzina i 43 minut temu, godzina 16:50 UTC
Wiatr 8 kt od zachód
Temperatura 23°C
Wilgotność 53%
Ciśnienie 1011 hPa
Widzialność 10 km lub więcej
Brak chmur poniżej 1500 m i brak chmur cumulonimbus

METAR: EGTC 171650Z 26008KT CAVOK 23/13 Q1011

czas: 19:33 (18:33 UTC)

Prognoza

Raport powstał 4 godziny i 34 minut temu, godzina 13:59 UTC
Prognoza ważna od 17 godzina 15 UTC do 17 godzina 18 UTC
Wiatr 9 kt od południowo-południowy zachód
Widzialność 10 km lub więcej
Mało chmury na wysokości 4500 ft

TAF: EGTC 171359Z 1715/1718 21009KT 9999 FEW045

Obserwacja i prognoza pogody dla ponad 4000 lotnisk (raport METAR i TAF).

Dostępne stacje oznaczono żółtymi i czerwonymi punktami na mapie.

Najedź kursorem aby zobaczyć nazwę stacji.

Kliknij aby zobaczyć obserwacje i prognozy pogody.

Aby zmienić mapę: kliknij na zielony przycisk z czarnym krzyżykiem, aby powiększyć; na zielony przycisk z myślnikiem, aby pomniejszyć; na zielone strzałki, aby przejść do map sąsiednich.


METAR-TAF: